createdAt,value
2017-06-14T00:00:41.159Z,15.45
2017-06-14T00:03:08.620Z,14.80
2017-06-14T00:05:36.072Z,16.00
2017-06-14T00:08:03.531Z,11.70
2017-06-14T00:10:30.988Z,10.45
2017-06-14T00:12:58.460Z,12.27
2017-06-14T00:15:25.926Z,12.10
2017-06-14T00:17:53.384Z,15.15
2017-06-14T00:20:20.845Z,13.50
2017-06-14T00:22:48.300Z,13.52
2017-06-14T00:25:15.759Z,13.38
2017-06-14T00:27:43.219Z,18.52
2017-06-14T00:30:10.675Z,16.50
2017-06-14T00:32:38.136Z,13.15
2017-06-14T00:35:05.591Z,13.35
2017-06-14T00:37:33.053Z,13.05
2017-06-14T00:40:00.513Z,18.12
2017-06-14T00:42:27.972Z,12.90
2017-06-14T00:44:55.417Z,12.57
2017-06-14T00:47:22.867Z,13.45
2017-06-14T00:49:50.320Z,15.40
2017-06-14T00:52:17.780Z,12.85
2017-06-14T00:54:45.336Z,13.00
2017-06-14T00:57:12.793Z,12.48
2017-06-14T00:59:40.247Z,12.98
2017-06-14T01:02:07.705Z,11.98
2017-06-14T01:04:35.165Z,15.63
2017-06-14T01:07:02.604Z,13.32
2017-06-14T01:09:30.051Z,14.02
2017-06-14T01:11:58.724Z,14.65
2017-06-14T01:14:26.937Z,12.82
2017-06-14T01:16:54.401Z,17.83
2017-06-14T01:19:21.855Z,13.15
2017-06-14T01:21:49.315Z,14.95
2017-06-14T01:24:16.768Z,12.37
2017-06-14T01:26:44.226Z,17.40
2017-06-14T01:29:11.688Z,13.82
2017-06-14T01:31:39.148Z,17.75
2017-06-14T01:34:06.607Z,20.67
2017-06-14T01:36:34.064Z,13.80
2017-06-14T01:39:01.519Z,11.88
2017-06-14T01:41:28.977Z,19.52
2017-06-14T01:43:56.435Z,17.23
2017-06-14T01:46:23.889Z,18.05
2017-06-14T01:48:51.351Z,17.37
2017-06-14T01:51:18.812Z,19.33
2017-06-14T01:53:46.284Z,17.23
2017-06-14T01:56:13.727Z,14.65
2017-06-14T01:58:41.184Z,14.00
2017-06-14T02:01:08.644Z,14.15
2017-06-14T02:03:36.105Z,12.55
2017-06-14T02:06:03.563Z,12.18
2017-06-14T02:08:31.015Z,13.95
2017-06-14T02:10:58.499Z,12.30
2017-06-14T02:13:25.959Z,18.02
2017-06-14T02:15:53.416Z,15.75
2017-06-14T02:18:20.876Z,14.45
2017-06-14T02:20:48.337Z,11.65
2017-06-14T02:23:15.800Z,13.40
2017-06-14T02:25:43.260Z,12.45
2017-06-14T02:28:10.721Z,16.83
2017-06-14T02:30:38.179Z,15.80
2017-06-14T02:33:05.637Z,14.18
2017-06-14T02:35:33.125Z,17.65
2017-06-14T02:38:00.567Z,17.83
2017-06-14T02:40:28.782Z,15.15
2017-06-14T02:42:56.248Z,16.87
2017-06-14T02:45:23.727Z,17.98
2017-06-14T02:47:51.188Z,19.35
2017-06-14T02:50:18.644Z,15.00
2017-06-14T02:52:46.108Z,17.48
2017-06-14T02:55:13.568Z,15.70
2017-06-14T02:57:41.024Z,16.98
2017-06-14T03:00:08.475Z,21.73
2017-06-14T03:02:36.012Z,16.40
2017-06-14T03:05:03.452Z,20.83
2017-06-14T03:07:30.908Z,19.45
2017-06-14T03:09:58.364Z,15.48
2017-06-14T03:12:25.819Z,14.48
2017-06-14T03:14:53.283Z,15.20
2017-06-14T03:17:20.723Z,14.68
2017-06-14T03:19:48.184Z,16.48
2017-06-14T03:22:16.411Z,18.60
2017-06-14T03:24:43.842Z,13.90
2017-06-14T03:27:11.286Z,13.18
2017-06-14T03:29:38.722Z,12.73
2017-06-14T03:32:06.944Z,14.15
2017-06-14T03:34:34.402Z,18.95
2017-06-14T03:37:01.892Z,16.70
2017-06-14T03:39:29.338Z,14.80
2017-06-14T03:41:58.575Z,14.10
2017-06-14T03:44:26.804Z,17.33
2017-06-14T03:46:54.260Z,11.23
2017-06-14T03:49:21.708Z,12.98
2017-06-14T03:51:49.168Z,13.32
2017-06-14T03:54:16.626Z,14.50
2017-06-14T03:56:44.084Z,16.00
2017-06-14T03:59:11.540Z,14.15
2017-06-14T04:01:39.004Z,19.40
2017-06-14T04:04:06.456Z,15.88
2017-06-14T04:06:33.908Z,16.52
2017-06-14T04:09:01.377Z,20.48
2017-06-14T04:11:28.836Z,17.15
2017-06-14T04:13:56.389Z,14.10
2017-06-14T04:16:23.841Z,17.23
2017-06-14T04:18:51.284Z,14.38
2017-06-14T04:21:18.740Z,14.93
2017-06-14T04:23:46.195Z,13.62
2017-06-14T04:26:13.648Z,15.95
2017-06-14T04:28:41.103Z,19.05
2017-06-14T04:31:09.381Z,22.20
2017-06-14T04:33:37.603Z,15.25
2017-06-14T04:36:05.050Z,14.13
2017-06-14T04:38:32.507Z,11.38
2017-06-14T04:40:59.964Z,16.15
2017-06-14T04:43:27.420Z,15.40
2017-06-14T04:45:54.879Z,19.35
2017-06-14T04:48:22.336Z,17.15
2017-06-14T04:50:49.796Z,19.10
2017-06-14T04:53:17.256Z,17.05
2017-06-14T04:55:44.705Z,13.18
2017-06-14T04:58:12.160Z,16.98
2017-06-14T05:00:39.617Z,14.25
2017-06-14T05:03:07.083Z,14.43
2017-06-14T05:05:34.571Z,15.88
2017-06-14T05:08:02.028Z,12.30
2017-06-14T05:10:29.484Z,12.75
2017-06-14T05:12:56.942Z,12.25
2017-06-14T05:15:24.396Z,12.55
2017-06-14T05:17:51.849Z,16.92
2017-06-14T05:20:19.308Z,18.10
2017-06-14T05:22:46.764Z,14.50
2017-06-14T05:25:14.220Z,16.73
2017-06-14T05:27:41.684Z,14.73
2017-06-14T05:30:09.157Z,17.70
2017-06-14T05:32:36.608Z,15.80
2017-06-14T05:35:04.068Z,17.02
2017-06-14T05:37:31.529Z,15.60
2017-06-14T05:39:58.992Z,16.48
2017-06-14T05:42:26.456Z,20.30
2017-06-14T05:44:53.921Z,15.38
2017-06-14T05:47:21.380Z,18.52
2017-06-14T05:49:49.600Z,18.23
2017-06-14T05:52:17.061Z,17.83
2017-06-14T05:54:44.523Z,15.43
2017-06-14T05:57:11.980Z,17.05
2017-06-14T05:59:39.450Z,18.42
2017-06-14T06:02:06.900Z,15.85
2017-06-14T06:04:34.372Z,15.50
2017-06-14T06:07:01.837Z,17.55
2017-06-14T06:09:29.300Z,15.00
2017-06-14T06:11:58.011Z,18.27
2017-06-14T06:14:26.243Z,16.42
2017-06-14T06:16:53.717Z,16.12
2017-06-14T06:19:21.184Z,16.62
2017-06-14T06:21:48.636Z,14.50
2017-06-14T06:24:16.126Z,15.82
2017-06-14T06:26:44.344Z,14.45
2017-06-14T06:29:11.816Z,14.35
2017-06-14T06:31:39.284Z,15.13
2017-06-14T06:34:06.751Z,14.27
2017-06-14T06:36:34.221Z,13.87
2017-06-14T06:39:01.684Z,13.23
2017-06-14T06:41:29.912Z,14.53
2017-06-14T06:43:57.379Z,13.68
2017-06-14T06:46:24.834Z,11.93
2017-06-14T06:48:52.292Z,14.77
2017-06-14T06:51:19.748Z,14.83
2017-06-14T06:53:47.202Z,15.13
2017-06-14T06:56:14.659Z,16.77
2017-06-14T06:58:42.124Z,13.33
2017-06-14T07:01:09.584Z,13.60
2017-06-14T07:03:37.044Z,15.53
2017-06-14T07:06:04.508Z,12.40
2017-06-14T07:08:31.959Z,15.27
2017-06-14T07:10:59.419Z,13.23
2017-06-14T07:13:26.875Z,13.30
2017-06-14T07:15:54.340Z,14.20
2017-06-14T07:18:21.808Z,15.80
2017-06-14T07:20:49.273Z,14.70
2017-06-14T07:23:16.719Z,15.50
2017-06-14T07:25:44.176Z,15.93
2017-06-14T07:28:11.640Z,16.10
2017-06-14T07:30:39.103Z,13.90
2017-06-14T07:33:06.552Z,14.50
2017-06-14T07:35:34.013Z,14.30
2017-06-14T07:38:01.468Z,14.00
2017-06-14T07:40:29.002Z,13.30
2017-06-14T07:42:56.448Z,13.40
2017-06-14T07:45:23.904Z,11.70
2017-06-14T07:47:51.357Z,12.10
2017-06-14T07:50:18.820Z,15.70
2017-06-14T07:52:46.272Z,16.93
2017-06-14T07:55:13.735Z,12.33
2017-06-14T07:57:41.191Z,10.60
2017-06-14T08:00:08.644Z,15.47
2017-06-14T08:02:36.100Z,10.43
2017-06-14T08:05:03.583Z,12.43
2017-06-14T08:07:31.029Z,14.83
2017-06-14T08:09:58.487Z,10.17
2017-06-14T08:12:25.939Z,12.53
2017-06-14T08:14:53.400Z,15.03
2017-06-14T08:17:20.852Z,14.77
2017-06-14T08:19:48.327Z,12.77
2017-06-14T08:22:15.785Z,11.90
2017-06-14T08:24:43.244Z,14.10
2017-06-14T08:27:10.703Z,12.80
2017-06-14T08:29:38.165Z,12.90
2017-06-14T08:32:05.618Z,11.53
2017-06-14T08:34:33.079Z,16.30
2017-06-14T08:37:00.536Z,18.00
2017-06-14T08:39:28.008Z,16.53
2017-06-14T08:41:55.460Z,15.77
2017-06-14T08:44:22.923Z,16.87
2017-06-14T08:46:50.473Z,18.03
2017-06-14T08:49:17.972Z,21.47
2017-06-14T08:51:45.428Z,16.80
2017-06-14T08:54:12.888Z,15.60
2017-06-14T08:56:40.340Z,15.33
2017-06-14T08:59:07.795Z,14.63
2017-06-14T09:01:35.281Z,12.07
2017-06-14T09:04:03.508Z,14.00
2017-06-14T09:06:31.024Z,13.10
2017-06-14T09:08:58.485Z,13.60
2017-06-14T09:11:25.928Z,10.57
2017-06-14T09:13:54.175Z,13.00
2017-06-14T09:16:21.623Z,10.50
2017-06-14T09:18:49.075Z,16.10
2017-06-14T09:21:16.527Z,13.83
2017-06-14T09:23:43.987Z,10.90
2017-06-14T09:26:11.436Z,11.53
2017-06-14T09:28:38.891Z,12.13
2017-06-14T09:31:06.453Z,10.60
2017-06-14T09:33:33.892Z,10.90
2017-06-14T09:36:01.352Z,11.23
2017-06-14T09:38:28.799Z,12.13
2017-06-14T09:40:57.028Z,11.20
2017-06-14T09:43:24.584Z,9.20
2017-06-14T09:45:52.149Z,8.20
2017-06-14T09:48:19.595Z,8.77
2017-06-14T09:50:47.067Z,7.67
2017-06-14T09:53:14.620Z,8.77
2017-06-14T09:55:42.072Z,8.60
2017-06-14T09:58:09.541Z,11.00
2017-06-14T10:00:36.984Z,8.80
2017-06-14T10:03:04.436Z,8.37
2017-06-14T10:05:31.888Z,9.13
2017-06-14T10:07:59.340Z,11.97
2017-06-14T10:10:26.791Z,8.03
2017-06-14T10:12:54.252Z,10.23
2017-06-14T10:15:21.701Z,11.77
2017-06-14T10:17:49.204Z,8.43
2017-06-14T10:20:16.659Z,11.03
2017-06-14T10:22:44.197Z,8.87
2017-06-14T10:25:11.629Z,9.20
2017-06-14T10:27:39.081Z,6.40
2017-06-14T10:32:44.004Z,8.20
2017-06-14T10:35:11.457Z,7.60
2017-06-14T10:37:38.909Z,7.43
2017-06-14T10:40:06.350Z,9.17
2017-06-14T10:42:33.788Z,8.70
2017-06-14T10:45:01.230Z,7.20
2017-06-14T10:47:28.671Z,8.10
2017-06-14T10:49:56.887Z,8.00
2017-06-14T10:52:24.323Z,7.10
2017-06-14T10:54:51.775Z,8.50
2017-06-14T10:57:19.225Z,6.87
2017-06-14T10:59:47.451Z,7.00
2017-06-14T11:02:14.912Z,7.73
2017-06-14T11:04:42.348Z,7.37
2017-06-14T11:07:09.800Z,7.13
2017-06-14T11:09:37.258Z,7.30
2017-06-14T11:12:04.695Z,6.30
2017-06-14T11:14:32.139Z,7.07
2017-06-14T11:17:00.360Z,5.60
2017-06-14T11:19:27.807Z,6.03
2017-06-14T11:21:55.256Z,7.07
2017-06-14T11:24:22.696Z,6.13
2017-06-14T11:26:50.917Z,5.87
2017-06-14T11:29:18.371Z,6.43
2017-06-14T11:31:45.844Z,5.90
2017-06-14T11:34:13.296Z,7.50
2017-06-14T11:36:40.775Z,5.53
2017-06-14T11:39:08.228Z,5.33
2017-06-14T11:41:35.678Z,5.33
2017-06-14T11:44:03.123Z,5.00
2017-06-14T11:46:30.585Z,6.60
2017-06-14T11:48:58.040Z,7.53
2017-06-14T11:51:25.492Z,7.33
2017-06-14T11:53:52.999Z,4.87
2017-06-14T11:56:21.220Z,7.27
2017-06-14T11:58:48.680Z,5.37
2017-06-14T12:01:16.132Z,7.60
2017-06-14T12:03:43.577Z,4.80
2017-06-14T12:06:11.028Z,4.50
2017-06-14T12:08:38.482Z,4.00
2017-06-14T12:11:05.925Z,4.00
2017-06-14T12:13:34.153Z,4.03
2017-06-14T12:16:01.596Z,4.40
2017-06-14T12:18:29.056Z,5.40
2017-06-14T12:20:56.617Z,4.30
2017-06-14T12:23:24.065Z,4.30
2017-06-14T12:25:51.513Z,4.00
2017-06-14T12:28:18.968Z,3.97
2017-06-14T12:30:46.415Z,3.83
2017-06-14T12:33:14.624Z,4.60
2017-06-14T12:35:42.079Z,4.30
2017-06-14T12:38:09.537Z,3.83
2017-06-14T12:40:36.992Z,5.00
2017-06-14T12:43:04.436Z,6.63
2017-06-14T12:45:31.879Z,3.77
2017-06-14T12:48:00.100Z,4.23
2017-06-14T12:50:27.544Z,4.67
2017-06-14T12:52:55.004Z,4.83
2017-06-14T12:55:22.447Z,4.83
2017-06-14T12:57:49.903Z,4.83
2017-06-14T13:00:17.360Z,5.10
2017-06-14T13:02:44.800Z,4.83
2017-06-14T13:05:13.026Z,4.37
2017-06-14T13:07:40.480Z,5.27
2017-06-14T13:10:07.936Z,4.80
2017-06-14T13:12:35.429Z,5.37
2017-06-14T13:15:02.881Z,5.20
2017-06-14T13:17:30.328Z,4.20
2017-06-14T13:19:57.769Z,4.17
2017-06-14T13:22:25.220Z,4.77
2017-06-14T13:24:52.675Z,4.20
2017-06-14T13:27:20.125Z,4.73
2017-06-14T13:29:47.565Z,6.90
2017-06-14T13:32:15.021Z,5.43
2017-06-14T13:34:42.462Z,4.33
2017-06-14T13:37:09.920Z,4.53
2017-06-14T13:39:38.141Z,4.30
2017-06-14T13:42:05.597Z,5.27
2017-06-14T13:44:33.115Z,4.13
2017-06-14T13:47:01.338Z,4.97
2017-06-14T13:49:28.788Z,4.90
2017-06-14T13:51:56.233Z,5.20
2017-06-14T13:54:23.679Z,4.80
2017-06-14T13:56:51.128Z,5.77
2017-06-14T13:59:18.584Z,5.13
2017-06-14T14:01:46.894Z,4.90
2017-06-14T14:04:14.331Z,5.07
2017-06-14T14:06:41.776Z,5.40
2017-06-14T14:09:10.000Z,5.13
2017-06-14T14:11:37.447Z,5.33
2017-06-14T14:14:04.898Z,4.90
2017-06-14T14:16:32.339Z,5.10
2017-06-14T14:18:59.800Z,5.77
2017-06-14T14:21:27.236Z,5.50
2017-06-14T14:23:54.688Z,5.00
2017-06-14T14:26:22.869Z,5.40
2017-06-14T14:28:50.321Z,4.83
2017-06-14T14:31:17.768Z,4.90
2017-06-14T14:33:45.216Z,5.27
2017-06-14T14:36:12.668Z,5.57
2017-06-14T14:38:40.120Z,5.73
2017-06-14T14:41:07.574Z,5.47
2017-06-14T14:43:35.031Z,4.80
2017-06-14T14:46:02.472Z,5.17
2017-06-14T14:48:29.928Z,5.47
2017-06-14T14:50:57.376Z,5.23
2017-06-14T14:53:24.828Z,5.10
2017-06-14T14:55:52.295Z,5.23
2017-06-14T14:58:19.732Z,5.30
2017-06-14T15:00:47.184Z,4.73
2017-06-14T15:03:14.628Z,4.40
2017-06-14T15:05:42.076Z,4.83
2017-06-14T15:08:09.528Z,4.80
2017-06-14T15:10:36.981Z,4.10
2017-06-14T15:13:04.432Z,4.47
2017-06-14T15:15:31.890Z,4.30
2017-06-14T15:18:00.144Z,4.60
2017-06-14T15:20:27.600Z,5.17
2017-06-14T15:22:55.154Z,4.63
2017-06-14T15:25:22.592Z,4.33
2017-06-14T15:27:50.044Z,4.50
2017-06-14T15:30:18.260Z,5.20
2017-06-14T15:32:45.761Z,4.73
2017-06-14T15:35:13.204Z,4.90
2017-06-14T15:37:40.649Z,4.43
2017-06-14T15:40:08.104Z,4.10
2017-06-14T15:42:35.556Z,4.57
2017-06-14T15:45:03.008Z,4.73
2017-06-14T15:47:30.459Z,5.20
2017-06-14T15:49:57.911Z,5.70
2017-06-14T15:52:25.362Z,4.87
2017-06-14T15:54:52.804Z,4.83
2017-06-14T15:57:20.251Z,4.70
2017-06-14T15:59:48.476Z,4.67
2017-06-14T16:02:15.932Z,4.40
2017-06-14T16:04:43.372Z,5.13
2017-06-14T16:07:10.824Z,5.50
2017-06-14T16:09:38.276Z,4.63
2017-06-14T16:12:05.724Z,4.90
2017-06-14T16:14:33.171Z,4.63
2017-06-14T16:17:01.384Z,4.70
2017-06-14T16:19:28.836Z,4.60
2017-06-14T16:21:56.276Z,4.83
2017-06-14T16:24:23.734Z,4.27
2017-06-14T16:26:51.180Z,4.57
2017-06-14T16:29:18.628Z,4.60
2017-06-14T16:31:46.067Z,4.87
2017-06-14T16:34:13.517Z,4.43
2017-06-14T16:36:40.971Z,4.50
2017-06-14T16:39:08.420Z,4.50
2017-06-14T16:41:35.873Z,4.33
2017-06-14T16:44:03.328Z,4.80
2017-06-14T16:46:30.768Z,4.53
2017-06-14T16:48:58.221Z,4.60
2017-06-14T16:51:25.682Z,5.00
2017-06-14T16:53:53.132Z,4.70
2017-06-14T16:56:20.580Z,4.97
2017-06-14T16:58:48.036Z,4.40
2017-06-14T17:01:15.484Z,4.47
2017-06-14T17:03:42.925Z,4.57
2017-06-14T17:06:10.396Z,3.87
2017-06-14T17:08:37.843Z,5.33
2017-06-14T17:11:05.292Z,4.83
2017-06-14T17:13:32.741Z,4.27
2017-06-14T17:16:00.191Z,7.00
2017-06-14T17:18:27.730Z,6.37
2017-06-14T17:20:55.174Z,5.47
2017-06-14T17:23:22.625Z,4.60
2017-06-14T17:25:50.072Z,4.50
2017-06-14T17:28:18.292Z,5.30
2017-06-14T17:30:45.753Z,5.67
2017-06-14T17:33:13.203Z,4.77
2017-06-14T17:35:40.657Z,4.57
2017-06-14T17:38:08.109Z,5.00
2017-06-14T17:40:35.568Z,4.93
2017-06-14T17:43:03.022Z,4.67
2017-06-14T17:45:30.472Z,4.70
2017-06-14T17:47:57.915Z,4.60
2017-06-14T17:50:25.416Z,4.47
2017-06-14T17:52:52.872Z,6.27
2017-06-14T17:55:20.317Z,5.50
2017-06-14T17:57:47.775Z,11.37
2017-06-14T18:00:15.233Z,9.63
2017-06-14T18:02:42.684Z,10.40
2017-06-14T18:05:10.128Z,6.33
2017-06-14T18:07:37.632Z,5.10
2017-06-14T18:10:05.105Z,4.60
2017-06-14T18:12:32.560Z,4.27
2017-06-14T18:15:00.009Z,4.20
2017-06-14T18:17:27.453Z,4.73
2017-06-14T18:19:54.904Z,4.27
2017-06-14T18:22:22.349Z,4.17
2017-06-14T18:24:49.806Z,4.80
2017-06-14T18:27:17.256Z,4.33
2017-06-14T18:29:44.705Z,7.43
2017-06-14T18:32:12.148Z,5.00
2017-06-14T18:34:39.600Z,5.00
2017-06-14T18:37:07.819Z,6.73
2017-06-14T18:39:35.255Z,5.50
2017-06-14T18:42:02.708Z,5.90
2017-06-14T18:44:30.149Z,5.40
2017-06-14T18:46:58.362Z,5.60
2017-06-14T18:49:25.812Z,5.23
2017-06-14T18:51:53.282Z,7.20
2017-06-14T18:54:20.717Z,5.00
2017-06-14T18:56:48.164Z,5.37
2017-06-14T18:59:16.384Z,5.90
2017-06-14T19:01:43.845Z,5.73
2017-06-14T19:04:11.294Z,4.70
2017-06-14T19:06:38.752Z,6.83
2017-06-14T19:09:06.188Z,8.63
2017-06-14T19:11:33.645Z,8.00
2017-06-14T19:14:01.147Z,7.30
2017-06-14T19:16:28.592Z,7.47
2017-06-14T19:18:56.044Z,6.63
2017-06-14T19:21:32.812Z,6.70
2017-06-14T19:24:05.836Z,6.53
2017-06-14T19:26:33.288Z,6.70
2017-06-14T19:29:00.730Z,6.90
2017-06-14T19:31:28.177Z,6.37
2017-06-14T19:34:10.498Z,6.87
2017-06-14T19:36:43.496Z,6.20
2017-06-14T19:39:10.930Z,5.93
2017-06-14T19:41:38.384Z,6.80
2017-06-14T19:44:05.842Z,6.40
2017-06-14T19:46:33.532Z,6.83
2017-06-14T19:49:00.980Z,6.30
2017-06-14T19:51:28.433Z,7.27
2017-06-14T19:53:55.920Z,6.73
2017-06-14T19:56:23.372Z,7.20
2017-06-14T19:58:50.828Z,7.40
2017-06-14T20:01:18.277Z,8.50
2017-06-14T20:03:45.728Z,8.07
2017-06-14T20:06:13.171Z,8.00
2017-06-14T20:08:40.629Z,8.33
2017-06-14T20:11:08.087Z,8.07
2017-06-14T20:13:35.541Z,10.30
2017-06-14T20:16:02.984Z,8.53
2017-06-14T20:18:30.505Z,7.03
2017-06-14T20:20:57.936Z,7.00
2017-06-14T20:23:25.412Z,7.80
2017-06-14T20:25:52.913Z,8.17
2017-06-14T20:28:20.379Z,10.73
2017-06-14T20:30:47.832Z,11.50
2017-06-14T20:33:15.392Z,19.83
2017-06-14T20:35:42.855Z,15.40
2017-06-14T20:38:10.317Z,11.37
2017-06-14T20:40:37.764Z,10.50
2017-06-14T20:43:05.268Z,16.30
2017-06-14T20:45:32.740Z,12.43
2017-06-14T20:48:00.195Z,11.17
2017-06-14T20:50:27.640Z,8.70
2017-06-14T20:52:55.097Z,9.00
2017-06-14T20:55:22.566Z,11.23
2017-06-14T20:57:50.020Z,10.37
2017-06-14T21:00:17.479Z,11.70
2017-06-14T21:02:44.945Z,10.83
2017-06-14T21:05:12.392Z,9.67
2017-06-14T21:07:39.840Z,9.50
2017-06-14T21:10:07.303Z,12.00
2017-06-14T21:12:34.760Z,12.27
2017-06-14T21:15:02.217Z,8.67
2017-06-14T21:17:29.673Z,12.47
2017-06-14T21:19:57.128Z,16.03
2017-06-14T21:22:24.593Z,9.10
2017-06-14T21:24:52.044Z,12.83
2017-06-14T21:27:19.514Z,11.43
2017-06-14T21:29:46.968Z,11.73
2017-06-14T21:32:14.428Z,11.30
2017-06-14T21:34:41.890Z,10.27
2017-06-14T21:37:09.412Z,9.97
2017-06-14T21:39:36.868Z,10.60
2017-06-14T21:42:04.328Z,11.53
2017-06-14T21:44:31.796Z,8.23
2017-06-14T21:46:59.239Z,8.40
2017-06-14T21:49:26.687Z,9.20
2017-06-14T21:51:54.144Z,8.97
2017-06-14T21:54:21.592Z,8.37
2017-06-14T21:56:49.044Z,9.20
2017-06-14T21:59:16.496Z,9.90
2017-06-14T22:01:44.784Z,9.30
2017-06-14T22:04:12.244Z,13.03
2017-06-14T22:06:39.691Z,8.63
2017-06-14T22:09:07.911Z,8.27
2017-06-14T22:11:35.356Z,9.73
2017-06-14T22:14:02.820Z,11.97
2017-06-14T22:16:30.268Z,11.80
2017-06-14T22:18:57.735Z,9.83
2017-06-14T22:21:25.202Z,10.30
2017-06-14T22:23:52.661Z,9.47
2017-06-14T22:26:20.150Z,9.63
2017-06-14T22:28:47.592Z,9.13
2017-06-14T22:31:15.052Z,9.40
2017-06-14T22:33:42.596Z,10.40
2017-06-14T22:36:10.044Z,11.07
2017-06-14T22:38:37.495Z,11.47
2017-06-14T22:41:04.960Z,9.30
2017-06-14T22:43:32.426Z,9.40
2017-06-14T22:45:59.883Z,8.70
2017-06-14T22:48:27.338Z,7.93
2017-06-14T22:50:54.786Z,8.90
2017-06-14T22:53:22.243Z,6.93
2017-06-14T22:55:49.717Z,10.10
2017-06-14T22:58:17.176Z,10.30
2017-06-14T23:00:44.633Z,7.60
2017-06-14T23:03:12.092Z,10.13
2017-06-14T23:05:39.548Z,11.60
2017-06-14T23:08:07.011Z,10.57
2017-06-14T23:10:34.463Z,13.23
2017-06-14T23:13:02.025Z,11.43
2017-06-14T23:15:29.464Z,11.30
2017-06-14T23:17:56.922Z,8.73
2017-06-14T23:20:24.412Z,8.93
2017-06-14T23:22:51.868Z,9.97
2017-06-14T23:25:19.316Z,10.10
2017-06-14T23:27:46.784Z,10.00
2017-06-14T23:30:14.244Z,9.23
2017-06-14T23:32:41.704Z,10.00
2017-06-14T23:35:09.173Z,9.70
2017-06-14T23:37:36.626Z,10.60
2017-06-14T23:40:04.088Z,10.88
2017-06-14T23:42:31.543Z,10.30
2017-06-14T23:44:59.009Z,10.77
2017-06-14T23:47:26.445Z,14.30
2017-06-14T23:49:53.894Z,9.93
2017-06-14T23:52:21.427Z,11.23
2017-06-14T23:54:48.884Z,10.30
2017-06-14T23:57:16.343Z,10.20
2017-06-14T23:59:43.804Z,9.38
